createdAt,value
2018-07-12T00:01:41.228Z,95.06
2018-07-12T00:04:08.359Z,95.77
2018-07-12T00:06:35.442Z,95.12
2018-07-12T00:09:02.566Z,95.64
2018-07-12T00:11:29.680Z,95.35
2018-07-12T00:13:56.820Z,95.38
2018-07-12T00:16:23.985Z,94.93
2018-07-12T00:18:51.191Z,94.61
2018-07-12T00:21:18.377Z,94.98
2018-07-12T00:23:45.487Z,94.79
2018-07-12T00:26:12.567Z,94.94
2018-07-12T00:28:39.679Z,95.53
2018-07-12T00:31:06.806Z,95.49
2018-07-12T00:33:33.918Z,95.78
2018-07-12T00:36:01.032Z,95.84
2018-07-12T00:38:28.222Z,95.44
2018-07-12T00:40:55.365Z,96.11
2018-07-12T00:43:22.531Z,95.73
2018-07-12T00:45:49.826Z,95.57
2018-07-12T00:48:17.038Z,94.41
2018-07-12T00:50:44.118Z,95.13
2018-07-12T00:53:11.222Z,95.58
2018-07-12T00:55:38.303Z,95.50
2018-07-12T00:58:05.401Z,95.01
2018-07-12T01:00:32.815Z,94.78
2018-07-12T01:02:59.895Z,94.96
2018-07-12T01:05:27.019Z,94.86
2018-07-12T01:07:54.143Z,95.28
2018-07-12T01:10:21.253Z,94.78
2018-07-12T01:12:48.337Z,95.42
2018-07-12T01:15:15.515Z,95.47
2018-07-12T01:17:42.556Z,94.73
2018-07-12T01:20:09.664Z,95.45
2018-07-12T01:22:36.784Z,95.05
2018-07-12T01:25:03.863Z,94.86
2018-07-12T01:27:31.006Z,94.79
2018-07-12T01:29:58.077Z,95.14
2018-07-12T01:32:25.223Z,95.19
2018-07-12T01:34:52.308Z,94.65
2018-07-12T01:37:19.429Z,94.97
2018-07-12T01:39:46.506Z,94.72
2018-07-12T01:42:13.578Z,94.86
2018-07-12T01:44:40.675Z,94.04
2018-07-12T01:47:07.787Z,94.73
2018-07-12T01:49:34.871Z,95.38
2018-07-12T01:52:01.980Z,96.01
2018-07-12T01:54:29.059Z,95.63
2018-07-12T01:56:56.140Z,95.93
2018-07-12T01:59:23.220Z,95.55
2018-07-12T02:01:50.314Z,95.54
2018-07-12T02:04:17.417Z,95.54
2018-07-12T02:06:44.499Z,95.69
2018-07-12T02:09:11.591Z,95.46
2018-07-12T02:11:38.976Z,95.97
2018-07-12T02:14:06.108Z,95.54
2018-07-12T02:16:33.191Z,95.26
2018-07-12T02:19:00.321Z,94.28
2018-07-12T02:21:27.395Z,94.63
2018-07-12T02:23:56.170Z,95.25
2018-07-12T02:26:23.262Z,95.18
2018-07-12T02:28:50.332Z,95.29
2018-07-12T02:31:17.429Z,95.21
2018-07-12T02:33:44.526Z,95.45
2018-07-12T02:36:11.710Z,95.27
2018-07-12T02:38:38.788Z,95.27
2018-07-12T02:41:05.910Z,95.13
2018-07-12T02:43:33.061Z,95.75
2018-07-12T02:46:00.148Z,95.70
2018-07-12T02:48:27.268Z,95.77
2018-07-12T02:50:54.307Z,95.65
2018-07-12T02:53:21.380Z,95.30
2018-07-12T02:55:48.768Z,95.26
2018-07-12T02:58:15.848Z,95.45
2018-07-12T03:00:43.028Z,95.41
2018-07-12T03:03:10.404Z,95.63
2018-07-12T03:05:37.641Z,95.82
2018-07-12T03:08:04.725Z,95.57
2018-07-12T03:10:32.059Z,96.09
2018-07-12T03:12:59.160Z,95.36
2018-07-12T03:15:26.243Z,95.46
2018-07-12T03:17:53.341Z,95.77
2018-07-12T03:20:20.448Z,96.19
2018-07-12T03:22:47.567Z,95.45
2018-07-12T03:25:15.099Z,95.92
2018-07-12T03:27:42.204Z,96.11
2018-07-12T03:30:09.312Z,96.03
2018-07-12T03:32:36.407Z,96.27
2018-07-12T03:35:03.505Z,95.86
2018-07-12T03:37:30.599Z,96.04
2018-07-12T03:39:57.711Z,95.97
2018-07-12T03:42:24.830Z,96.02
2018-07-12T03:44:51.941Z,95.76
2018-07-12T03:47:19.211Z,96.05
2018-07-12T03:49:46.307Z,96.07
2018-07-12T03:52:13.407Z,95.87
2018-07-12T03:54:40.502Z,96.02
2018-07-12T03:57:07.579Z,96.06
2018-07-12T03:59:34.792Z,95.97
2018-07-12T04:02:01.868Z,95.81
2018-07-12T04:04:28.962Z,95.81
2018-07-12T04:06:56.064Z,95.13
2018-07-12T04:09:23.155Z,95.52
2018-07-12T04:11:50.281Z,95.57
2018-07-12T04:14:17.628Z,95.84
2018-07-12T04:16:44.752Z,95.44
2018-07-12T04:19:11.836Z,95.68
2018-07-12T04:21:39.111Z,94.86
2018-07-12T04:24:06.202Z,93.38
2018-07-12T04:26:33.288Z,94.68
2018-07-12T04:29:00.498Z,94.35
2018-07-12T04:31:27.707Z,94.86
2018-07-12T04:33:54.864Z,94.97
2018-07-12T04:36:22.071Z,93.72
2018-07-12T04:38:49.341Z,95.02
2018-07-12T04:41:16.440Z,95.37
2018-07-12T04:43:43.604Z,95.73
2018-07-12T04:46:10.703Z,95.24
2018-07-12T04:48:37.828Z,95.38
2018-07-12T04:51:04.933Z,95.63
2018-07-12T04:53:32.000Z,95.34
2018-07-12T04:55:59.146Z,95.43
2018-07-12T04:58:26.302Z,95.59
2018-07-12T05:00:53.391Z,94.68
2018-07-12T05:03:20.519Z,94.83
2018-07-12T05:05:47.653Z,95.10
2018-07-12T05:08:14.801Z,93.58
2018-07-12T05:10:41.839Z,94.65
2018-07-12T05:13:08.952Z,94.64
2018-07-12T05:15:36.045Z,94.99
2018-07-12T05:18:03.152Z,94.54
2018-07-12T05:20:30.258Z,94.45
2018-07-12T05:22:57.344Z,93.53
2018-07-12T05:25:24.565Z,93.02
2018-07-12T05:27:51.819Z,93.50
2018-07-12T05:30:18.992Z,90.32
2018-07-12T05:32:46.119Z,92.80
2018-07-12T05:35:13.217Z,93.53
2018-07-12T05:37:41.260Z,94.09
2018-07-12T05:40:09.658Z,91.94
2018-07-12T05:42:37.723Z,91.71
2018-07-12T05:45:05.868Z,93.34
2018-07-12T05:47:33.956Z,92.91
2018-07-12T05:50:02.033Z,90.62
2018-07-12T05:52:31.015Z,92.53
2018-07-12T05:54:59.172Z,92.90
2018-07-12T05:57:27.283Z,90.67
2018-07-12T05:59:55.316Z,92.64
2018-07-12T06:02:24.559Z,92.83
2018-07-12T06:04:52.611Z,92.95
2018-07-12T06:07:25.970Z,91.80
2018-07-12T06:09:54.117Z,90.88
2018-07-12T06:12:22.179Z,90.25
2018-07-12T06:14:50.737Z,89.15
2018-07-12T06:17:18.866Z,89.52
2018-07-12T06:19:47.208Z,88.49
2018-07-12T06:22:15.480Z,88.63
2018-07-12T06:24:43.567Z,86.63
2018-07-12T06:27:13.528Z,86.73
2018-07-12T06:29:41.565Z,85.61
2018-07-12T06:32:09.645Z,83.85
2018-07-12T06:34:37.706Z,84.60
2018-07-12T06:37:05.826Z,82.44
2018-07-12T06:39:33.860Z,83.03
2018-07-12T06:42:01.964Z,83.29
2018-07-12T06:44:30.248Z,83.07
2018-07-12T06:46:58.298Z,81.47
2018-07-12T06:49:26.371Z,81.69
2018-07-12T06:51:54.441Z,80.58
2018-07-12T06:54:22.502Z,79.67
2018-07-12T06:56:50.595Z,78.57
2018-07-12T06:59:18.644Z,76.11
2018-07-12T07:01:46.744Z,77.41
2018-07-12T07:04:14.797Z,77.77
2018-07-12T07:06:42.864Z,75.68
2018-07-12T07:09:11.615Z,72.11
2018-07-12T07:11:39.924Z,70.99
2018-07-12T07:14:08.223Z,68.31
2018-07-12T07:16:36.703Z,68.04
2018-07-12T07:19:04.752Z,64.34
2018-07-12T07:21:33.678Z,65.56
2018-07-12T07:24:01.692Z,66.05
2018-07-12T07:26:29.753Z,61.55
2018-07-12T07:28:57.800Z,62.71
2018-07-12T07:31:25.856Z,56.96
2018-07-12T07:33:53.936Z,56.16
2018-07-12T07:36:22.016Z,59.57
2018-07-12T07:38:50.107Z,56.13
2018-07-12T07:41:18.179Z,57.16
2018-07-12T07:43:46.246Z,56.78
2018-07-12T07:46:14.346Z,56.29
2018-07-12T07:48:42.395Z,55.47
2018-07-12T07:51:10.459Z,54.31
2018-07-12T07:53:38.611Z,52.44
2018-07-12T07:56:06.736Z,49.08
2018-07-12T07:58:34.869Z,48.47
2018-07-12T08:01:02.971Z,50.43
2018-07-12T08:03:31.025Z,46.13
2018-07-12T08:05:59.088Z,48.34
2018-07-12T08:08:27.224Z,48.59
2018-07-12T08:10:55.517Z,49.66
2018-07-12T08:13:23.692Z,50.31
2018-07-12T08:15:51.844Z,51.73
2018-07-12T08:18:19.917Z,53.21
2018-07-12T08:20:48.001Z,53.74
2018-07-12T08:23:16.045Z,54.25
2018-07-12T08:25:44.239Z,55.63
2018-07-12T08:28:21.743Z,55.01
2018-07-12T08:30:49.987Z,56.55
2018-07-12T08:33:18.070Z,54.03
2018-07-12T08:35:46.129Z,52.48
2018-07-12T08:38:14.567Z,51.01
2018-07-12T08:40:43.443Z,51.89
2018-07-12T08:43:11.848Z,52.16
2018-07-12T08:45:39.916Z,52.33
2018-07-12T08:48:08.574Z,53.35
2018-07-12T08:50:36.619Z,54.16
2018-07-12T08:53:04.714Z,55.44
2018-07-12T08:55:32.852Z,53.49
2018-07-12T08:58:00.936Z,53.77
2018-07-12T09:00:29.070Z,53.77
2018-07-12T09:02:57.245Z,52.44
2018-07-12T09:05:25.289Z,53.99
2018-07-12T09:07:55.364Z,55.07
2018-07-12T09:10:23.468Z,55.15
2018-07-12T09:12:51.829Z,56.05
2018-07-12T09:15:19.885Z,58.15
2018-07-12T09:17:49.636Z,56.52
2018-07-12T09:20:17.708Z,56.22
2018-07-12T09:22:47.533Z,56.73
2018-07-12T09:25:17.252Z,56.27
2018-07-12T09:27:45.939Z,55.79
2018-07-12T09:30:14.122Z,56.52
2018-07-12T09:32:42.189Z,56.10
2018-07-12T09:35:10.260Z,56.18
2018-07-12T09:37:38.620Z,54.89
2018-07-12T09:40:06.686Z,55.28
2018-07-12T09:42:35.353Z,51.97
2018-07-12T09:45:03.629Z,48.78
2018-07-12T09:47:31.698Z,51.88
2018-07-12T09:49:59.861Z,48.82
2018-07-12T09:52:32.443Z,49.86
2018-07-12T09:55:01.432Z,46.40
2018-07-12T09:57:41.199Z,47.47
2018-07-12T10:00:09.251Z,44.78
2018-07-12T10:02:42.995Z,44.24
2018-07-12T10:06:14.675Z,45.38
2018-07-12T10:08:48.044Z,45.32
2018-07-12T10:11:21.843Z,46.72
2018-07-12T10:13:55.151Z,45.31
2018-07-12T10:16:28.499Z,47.25
2018-07-12T10:18:56.527Z,45.20
2018-07-12T10:21:24.605Z,46.44
2018-07-12T10:23:53.244Z,48.10
2018-07-12T10:26:21.296Z,47.65
2018-07-12T10:28:49.383Z,47.42
2018-07-12T10:31:17.447Z,48.38
2018-07-12T10:33:45.516Z,47.73
2018-07-12T10:36:13.625Z,48.26
2018-07-12T10:38:41.698Z,47.06
2018-07-12T10:41:09.745Z,47.62
2018-07-12T10:43:37.838Z,50.33
2018-07-12T10:46:05.988Z,48.88
2018-07-12T10:48:34.088Z,47.87
2018-07-12T10:51:02.180Z,49.10
2018-07-12T10:53:30.403Z,47.89
2018-07-12T10:55:58.536Z,48.34
2018-07-12T10:58:27.292Z,47.61
2018-07-12T11:00:55.480Z,48.42
2018-07-12T11:03:23.696Z,47.82
2018-07-12T11:05:52.017Z,47.70
2018-07-12T11:08:20.210Z,46.09
2018-07-12T11:10:48.873Z,46.32
2018-07-12T11:13:19.525Z,47.00
2018-07-12T11:15:48.396Z,47.18
2018-07-12T11:18:16.664Z,48.95
2018-07-12T11:20:45.386Z,47.02
2018-07-12T11:23:13.472Z,45.98
2018-07-12T11:25:41.544Z,44.72
2018-07-12T11:28:09.640Z,46.29
2018-07-12T11:30:37.680Z,47.71
2018-07-12T11:33:45.278Z,46.94
2018-07-12T11:36:14.579Z,48.06
2018-07-12T11:38:43.963Z,48.02
2018-07-12T11:41:12.254Z,47.15
2018-07-12T11:43:40.371Z,47.27
2018-07-12T11:46:09.660Z,47.24
2018-07-12T11:48:39.855Z,47.07
2018-07-12T11:51:07.900Z,47.37
2018-07-12T11:53:35.960Z,46.55
2018-07-12T11:56:04.044Z,47.49
2018-07-12T11:58:32.122Z,46.42
2018-07-12T12:01:01.077Z,45.17
2018-07-12T12:03:29.672Z,45.48
2018-07-12T12:05:57.909Z,45.54
2018-07-12T12:08:26.566Z,46.40
2018-07-12T12:10:54.979Z,47.47
2018-07-12T12:13:23.461Z,48.51
2018-07-12T12:15:51.819Z,50.08
2018-07-12T12:18:20.164Z,52.00
2018-07-12T12:20:48.568Z,52.63
2018-07-12T12:23:16.784Z,53.61
2018-07-12T12:25:44.981Z,53.71
2018-07-12T12:28:13.075Z,54.52
2018-07-12T12:30:41.949Z,53.46
2018-07-12T12:33:09.995Z,53.37
2018-07-12T12:35:38.119Z,54.36
2018-07-12T12:38:06.175Z,55.11
2018-07-12T12:40:34.392Z,55.03
2018-07-12T12:43:02.666Z,54.41
2018-07-12T12:45:30.928Z,54.27
2018-07-12T12:48:05.774Z,53.54
2018-07-12T12:50:33.851Z,52.42
2018-07-12T12:53:02.397Z,53.11
2018-07-12T12:55:30.590Z,54.15
2018-07-12T12:57:58.867Z,55.24
2018-07-12T13:00:27.105Z,55.56
2018-07-12T13:02:55.723Z,56.73
2018-07-12T13:05:24.129Z,56.75
2018-07-12T13:07:52.603Z,56.07
2018-07-12T13:10:21.242Z,55.94
2018-07-12T13:12:49.670Z,56.84
2018-07-12T13:15:17.944Z,55.89
2018-07-12T13:17:46.054Z,57.56
2018-07-12T13:20:14.157Z,56.17
2018-07-12T13:22:42.231Z,55.80
2018-07-12T13:25:10.312Z,56.73
2018-07-12T13:27:38.590Z,54.78
2018-07-12T13:30:06.722Z,54.73
2018-07-12T13:32:34.804Z,53.71
2018-07-12T13:35:02.876Z,53.34
2018-07-12T13:37:30.978Z,53.50
2018-07-12T13:39:59.075Z,53.79
2018-07-12T13:42:27.144Z,53.66
2018-07-12T13:44:55.225Z,52.49
2018-07-12T13:47:23.304Z,52.45
2018-07-12T13:49:51.401Z,50.58
2018-07-12T13:52:19.471Z,50.46
2018-07-12T13:54:47.532Z,49.76
2018-07-12T13:57:15.608Z,50.27
2018-07-12T13:59:43.704Z,50.61
2018-07-12T14:02:12.032Z,50.34
2018-07-12T14:04:40.080Z,49.61
2018-07-12T14:07:08.175Z,51.06
2018-07-12T14:09:36.531Z,51.80
2018-07-12T14:12:04.589Z,51.80
2018-07-12T14:14:32.627Z,51.19
2018-07-12T14:17:00.677Z,50.81
2018-07-12T14:19:28.725Z,51.15
2018-07-12T14:21:56.809Z,49.78
2018-07-12T14:24:24.923Z,49.90
2018-07-12T14:26:52.982Z,49.17
2018-07-12T14:29:21.076Z,48.30
2018-07-12T14:31:49.151Z,49.86
2018-07-12T14:34:17.219Z,49.91
2018-07-12T14:36:45.613Z,51.62
2018-07-12T14:39:13.768Z,51.85
2018-07-12T14:41:42.057Z,51.87
2018-07-12T14:44:10.151Z,52.25
2018-07-12T14:46:38.210Z,52.31
2018-07-12T14:49:06.260Z,53.65
2018-07-12T14:51:34.315Z,53.84
2018-07-12T14:54:02.528Z,55.02
2018-07-12T14:56:30.697Z,54.31
2018-07-12T14:58:58.835Z,54.99
2018-07-12T15:01:27.062Z,55.55
2018-07-12T15:03:55.238Z,55.48
2018-07-12T15:06:23.583Z,56.61
2018-07-12T15:08:52.115Z,57.74
2018-07-12T15:11:20.364Z,58.71
2018-07-12T15:13:48.775Z,59.42
2018-07-12T15:16:16.821Z,59.18
2018-07-12T15:18:44.881Z,58.21
2018-07-12T15:21:12.963Z,59.25
2018-07-12T15:23:41.268Z,58.18
2018-07-12T15:26:09.333Z,58.93
2018-07-12T15:28:37.380Z,58.56
2018-07-12T15:31:05.809Z,58.93
2018-07-12T15:33:33.854Z,58.83
2018-07-12T15:36:01.900Z,58.46
2018-07-12T15:38:30.008Z,58.48
2018-07-12T15:40:58.071Z,58.65
2018-07-12T15:43:26.134Z,58.46
2018-07-12T15:45:54.187Z,58.16
2018-07-12T15:48:22.241Z,58.34
2018-07-12T15:50:50.307Z,57.73
2018-07-12T15:53:19.351Z,57.84
2018-07-12T15:55:47.459Z,57.39
2018-07-12T15:58:15.777Z,57.10
2018-07-12T16:00:43.807Z,56.77
2018-07-12T16:03:11.948Z,56.72
2018-07-12T16:05:40.132Z,57.34
2018-07-12T16:08:08.183Z,57.69
2018-07-12T16:10:36.251Z,57.67
2018-07-12T16:13:05.676Z,57.31
2018-07-12T16:15:33.744Z,57.63
2018-07-12T16:18:02.671Z,57.78
2018-07-12T16:20:30.760Z,58.15
2018-07-12T16:22:58.943Z,57.58
2018-07-12T16:25:27.249Z,57.08
2018-07-12T16:27:55.587Z,58.12
2018-07-12T16:30:23.916Z,58.51
2018-07-12T16:32:52.343Z,59.02
2018-07-12T16:35:20.812Z,58.35
2018-07-12T16:37:49.058Z,58.77
2018-07-12T16:40:17.867Z,58.25
2018-07-12T16:42:45.951Z,58.59
2018-07-12T16:45:14.009Z,58.26
2018-07-12T16:47:42.068Z,58.89
2018-07-12T16:50:10.107Z,59.11
2018-07-12T16:52:38.175Z,59.45
2018-07-12T16:55:06.207Z,59.62
2018-07-12T16:57:34.244Z,59.79
2018-07-12T17:00:02.299Z,59.38
2018-07-12T17:02:30.355Z,57.82
2018-07-12T17:04:58.820Z,58.15
2018-07-12T17:07:26.862Z,58.00
2018-07-12T17:09:55.511Z,57.57
2018-07-12T17:12:24.010Z,57.53
2018-07-12T17:14:52.274Z,58.09
2018-07-12T17:17:21.254Z,59.06
2018-07-12T17:19:49.410Z,58.90
2018-07-12T17:22:17.681Z,59.23
2018-07-12T17:24:45.872Z,58.66
2018-07-12T17:27:13.940Z,57.83
2018-07-12T17:29:42.013Z,58.70
2018-07-12T17:32:10.085Z,58.32
2018-07-12T17:34:38.172Z,57.44
2018-07-12T17:37:06.326Z,57.95
2018-07-12T17:39:40.975Z,58.36
2018-07-12T17:42:09.014Z,58.73
2018-07-12T17:44:37.074Z,58.26
2018-07-12T17:47:05.523Z,58.52
2018-07-12T17:49:33.572Z,59.06
2018-07-12T17:52:01.646Z,58.32
2018-07-12T17:54:29.708Z,59.02
2018-07-12T17:56:57.765Z,58.40
2018-07-12T17:59:25.816Z,58.51
2018-07-12T18:01:53.908Z,58.60
2018-07-12T18:04:21.965Z,58.38
2018-07-12T18:06:50.016Z,58.40
2018-07-12T18:09:18.087Z,59.07
2018-07-12T18:11:46.176Z,58.46
2018-07-12T18:14:14.297Z,57.94
2018-07-12T18:16:42.346Z,58.05
2018-07-12T18:19:10.448Z,58.02
2018-07-12T18:21:38.550Z,57.54
2018-07-12T18:24:06.631Z,57.37
2018-07-12T18:26:34.742Z,57.90
2018-07-12T18:29:02.838Z,57.66
2018-07-12T18:31:30.910Z,57.42
2018-07-12T18:33:58.951Z,57.04
2018-07-12T18:36:27.538Z,57.25
2018-07-12T18:38:55.574Z,56.35
2018-07-12T18:41:23.756Z,56.51
2018-07-12T18:43:51.780Z,56.95
2018-07-12T18:46:19.840Z,56.37
2018-07-12T18:48:48.333Z,57.08
2018-07-12T18:51:16.403Z,57.03
2018-07-12T18:53:44.435Z,57.03
2018-07-12T18:56:13.260Z,56.51
2018-07-12T18:58:41.304Z,56.41
2018-07-12T19:01:09.485Z,56.92
2018-07-12T19:03:38.097Z,57.79
2018-07-12T19:06:06.211Z,57.11
2018-07-12T19:08:34.353Z,56.85
2018-07-12T19:11:02.765Z,57.46
2018-07-12T19:13:30.872Z,57.85
2018-07-12T19:15:58.945Z,57.51
2018-07-12T19:18:27.450Z,57.63
2018-07-12T19:20:55.520Z,58.08
2018-07-12T19:23:23.612Z,58.22
2018-07-12T19:25:51.916Z,58.34
2018-07-12T19:28:19.976Z,58.38
2018-07-12T19:30:48.070Z,59.25
2018-07-12T19:33:16.312Z,59.29
2018-07-12T19:35:44.391Z,59.06
2018-07-12T19:38:12.470Z,59.09
2018-07-12T19:40:40.533Z,59.18
2018-07-12T19:43:08.671Z,59.46
2018-07-12T19:45:36.784Z,60.30
2018-07-12T19:48:05.143Z,60.62
2018-07-12T19:50:33.525Z,61.26
2018-07-12T19:53:01.612Z,61.39
2018-07-12T19:55:30.048Z,61.60
2018-07-12T19:57:58.254Z,61.75
2018-07-12T20:00:26.556Z,61.37
2018-07-12T20:02:55.206Z,62.10
2018-07-12T20:05:23.491Z,62.69
2018-07-12T20:07:52.511Z,62.92
2018-07-12T20:10:21.173Z,63.12
2018-07-12T20:12:49.455Z,63.67
2018-07-12T20:15:17.767Z,64.18
2018-07-12T20:17:46.081Z,65.06
2018-07-12T20:20:14.640Z,64.63
2018-07-12T20:22:42.731Z,65.38
2018-07-12T20:25:10.835Z,65.80
2018-07-12T20:27:38.893Z,65.36
2018-07-12T20:30:07.585Z,65.55
2018-07-12T20:32:35.636Z,66.04
2018-07-12T20:35:03.688Z,65.16
2018-07-12T20:37:32.056Z,65.49
2018-07-12T20:40:00.251Z,65.65
2018-07-12T20:42:28.405Z,65.31
2018-07-12T20:44:56.951Z,65.89
2018-07-12T20:47:25.393Z,66.64
2018-07-12T20:49:53.768Z,67.14
2018-07-12T20:52:22.416Z,67.20
2018-07-12T20:54:50.978Z,68.01
2018-07-12T20:57:19.289Z,68.48
2018-07-12T20:59:47.452Z,70.11
2018-07-12T21:02:15.663Z,69.80
2018-07-12T21:04:43.736Z,70.96
2018-07-12T21:07:11.881Z,70.53
2018-07-12T21:09:41.114Z,70.50
2018-07-12T21:12:09.159Z,71.50
2018-07-12T21:14:37.406Z,70.98
2018-07-12T21:17:05.472Z,70.53
2018-07-12T21:19:33.592Z,71.19
2018-07-12T21:22:02.218Z,71.03
2018-07-12T21:24:30.327Z,71.60
2018-07-12T21:26:58.575Z,73.16
2018-07-12T21:29:26.799Z,73.61
2018-07-12T21:31:55.487Z,72.98
2018-07-12T21:34:23.862Z,73.45
2018-07-12T21:36:52.355Z,74.29
2018-07-12T21:39:20.831Z,73.48
2018-07-12T21:41:49.287Z,73.76
2018-07-12T21:44:17.875Z,73.62
2018-07-12T21:46:46.178Z,74.21
2018-07-12T21:49:14.399Z,73.20
2018-07-12T21:51:42.531Z,73.37
2018-07-12T21:54:10.591Z,73.99
2018-07-12T21:56:38.759Z,74.25
2018-07-12T21:59:06.814Z,73.96
2018-07-12T22:01:34.892Z,74.56
2018-07-12T22:04:03.000Z,74.72
2018-07-12T22:07:41.444Z,74.23
2018-07-12T22:10:09.862Z,75.17
2018-07-12T22:12:37.912Z,74.34
2018-07-12T22:15:05.987Z,74.00
2018-07-12T22:17:34.059Z,75.05
2018-07-12T22:20:02.175Z,74.33
2018-07-12T22:22:30.575Z,74.55
2018-07-12T22:24:58.796Z,74.19
2018-07-12T22:27:27.002Z,74.54
2018-07-12T22:29:55.324Z,74.89
2018-07-12T22:32:23.702Z,74.50
2018-07-12T22:34:52.069Z,74.82
2018-07-12T22:37:20.411Z,74.91
2018-07-12T22:39:48.725Z,74.75
2018-07-12T22:42:17.173Z,74.30
2018-07-12T22:44:45.248Z,74.39
2018-07-12T22:47:13.279Z,74.46
2018-07-12T22:49:41.354Z,74.90
2018-07-12T22:52:09.444Z,75.19
2018-07-12T22:54:37.536Z,74.80
2018-07-12T22:57:05.596Z,75.62
2018-07-12T22:59:33.660Z,75.91
2018-07-12T23:02:01.853Z,75.46
2018-07-12T23:04:30.084Z,75.49
2018-07-12T23:06:58.374Z,76.20
2018-07-12T23:09:26.821Z,76.03
2018-07-12T23:11:55.086Z,75.90
2018-07-12T23:14:23.537Z,76.38
2018-07-12T23:16:51.954Z,76.26
2018-07-12T23:19:21.260Z,76.48
2018-07-12T23:21:49.672Z,76.44
2018-07-12T23:24:17.767Z,76.97
2018-07-12T23:26:46.828Z,76.82
2018-07-12T23:29:14.891Z,76.39
2018-07-12T23:31:42.964Z,75.96
2018-07-12T23:34:11.036Z,76.37
2018-07-12T23:36:39.094Z,76.51
2018-07-12T23:39:07.656Z,75.78
2018-07-12T23:41:35.757Z,76.40
2018-07-12T23:44:03.844Z,76.28
2018-07-12T23:46:32.021Z,75.98
2018-07-12T23:49:00.184Z,76.58
2018-07-12T23:51:28.424Z,76.92
2018-07-12T23:53:56.700Z,76.70
2018-07-12T23:56:25.064Z,76.46
2018-07-12T23:58:53.576Z,76.13
